Seihou Maru — JD3992 — position and weather

sailwx.info

Track history (hours):
 
Tides and Currents Weather Stations Pressure Air Temp Water Temp Dewpoint Dewpoint Depression Visibility Wind Speed Wind Dir Waves Ship Positions

Seihou Maru

Last reported at 2018-Feb-20 07:00 UTC. Time now 2018-Feb-20 07:30 UTC.
Position N 35°27' E 139°49'.

Length 75 m; draft 4.6 m.

Type: Cargo ship. MMSI: 431007426.

Date/timePositionNaut miles runAvg speedWind from/ knotsBaromVisibWave heightAir tempDewpointWater temp
2018-Feb-20 07:00N 35°27' E 139°49'712.1
2018-Feb-20 06:28N 35°33' E 139°53'611.1
2018-Feb-20 05:57N 35°37' E 139°48'1 1.3
2018-Feb-20 05:27N 35°38' E 139°48'0 0.0
2018-Feb-20 04:06N 35°38' E 139°48'0 0.0
2018-Feb-20 03:53N 35°38' E 139°48'0 0.0
2018-Feb-20 03:24N 35°38' E 139°48'0 0.0
2018-Feb-20 02:53N 35°38' E 139°48'0 0.0
2018-Feb-20 01:33N 35°38' E 139°48'0 0.0
2018-Feb-20 01:24N 35°38' E 139°48'0 0.0
2018-Feb-20 00:58N 35°38' E 139°48'0 0.0
2018-Feb-20 00:27N 35°38' E 139°48'0 0.0
2018-Feb-19 23:57N 35°38' E 139°48'0 0.5
2018-Feb-19 23:30N 35°38' E 139°48'3 6.5
2018-Feb-19 23:00N 35°36' E 139°52'1 2.1
2018-Feb-19 22:29N 35°36' E 139°53'0 0.0
2018-Feb-19 22:00N 35°36' E 139°53'0 0.0
2018-Feb-19 21:25N 35°36' E 139°53'0 0.0
2018-Feb-19 21:00N 35°36' E 139°53'0 0.0
2018-Feb-19 20:30N 35°36' E 139°53'0 0.0
2018-Feb-19 19:57N 35°36' E 139°53'0 0.0
2018-Feb-19 19:22N 35°36' E 139°53'0 0.0
2018-Feb-19 19:00N 35°36' E 139°53'0 0.0
2018-Feb-19 18:27N 35°36' E 139°53'0 0.0
2018-Feb-19 17:59N 35°36' E 139°53'0 0.0
2018-Feb-19 17:30N 35°36' E 139°53'0 0.0
2018-Feb-19 16:56N 35°36' E 139°53'0 0.0
2018-Feb-19 16:30N 35°36' E 139°53'0 0.0
2018-Feb-19 15:59N 35°36' E 139°53'0 0.1
2018-Feb-19 15:16N 35°36' E 139°53'0 0.0
2018-Feb-19 14:06N 35°36' E 139°53'0 0.0
2018-Feb-19 13:59N 35°36' E 139°53'0 0.0
2018-Feb-19 13:30N 35°36' E 139°53'0 0.0
2018-Feb-19 12:58N 35°36' E 139°53'0 0.0
2018-Feb-19 12:09N 35°36' E 139°53'0 0.0
2018-Feb-19 11:57N 35°36' E 139°53'0 0.0
2018-Feb-19 11:25N 35°36' E 139°53'0 0.0
2018-Feb-19 10:41N 35°36' E 139°53'0 0.0
2018-Feb-19 10:27N 35°36' E 139°53'0 0.0
2018-Feb-19 10:00N 35°36' E 139°53'0 0.1
2018-Feb-19 09:30N 35°36' E 139°53'0 0.0
2018-Feb-19 08:57N 35°36' E 139°53'0 0.0
2018-Feb-19 08:30N 35°36' E 139°53'0 0.0
2018-Feb-19 08:00N 35°36' E 139°53'2 4.2
2018-Feb-19 07:30N 35°35' E 139°55'612.3
2018-Feb-19 07:00N 35°35' E 140°03'2 4.0
2018-Feb-19 06:30N 35°37' E 140°05'0 0.0
2018-Feb-19 06:00N 35°37' E 140°05'0 0.0
2018-Feb-19 05:30N 35°37' E 140°05'0 0.0
2018-Feb-19 05:00N 35°37' E 140°05'0 0.0
2018-Feb-19 04:31N 35°37' E 140°05'0 0.0
2018-Feb-19 04:00N 35°37' E 140°05'1 2.1
2018-Feb-19 03:30N 35°36' E 140°05'4 8.3
2018-Feb-19 03:00N 35°34' E 140°01'3 5.1
2018-Feb-19 02:30N 35°34' E 139°58'3 7.0
2018-Feb-19 02:00N 35°38' E 139°58'3 1.6
2018-Feb-18 23:58N 35°41' E 139°57'3 0.1
2018-Feb-18 03:30N 35°38' E 139°59'3 0.7
2018-Feb-17 23:53N 35°36' E 139°57'0 0.0
2018-Feb-17 23:28N 35°36' E 139°57'0 0.0
2018-Feb-17 22:11N 35°36' E 139°57'0 0.0
2018-Feb-17 21:51N 35°36' E 139°57'0 0.0
2018-Feb-17 21:30N 35°36' E 139°57'0 0.0
2018-Feb-17 19:51N 35°36' E 139°57'3 6.7
2018-Feb-17 19:25N 35°33' E 139°56'512.5
2018-Feb-17 19:00N 35°29' E 139°52'612.6
2018-Feb-17 18:30N 35°25' E 139°47'612.5
2018-Feb-17 18:01N 35°19' E 139°44'612.0
2018-Feb-17 17:30N 35°13' E 139°47'611.6
2018-Feb-17 17:00N 35°07' E 139°46'17 6.8
2018-Feb-17 14:28N 34°57' E 140°02'40411.6
2018-Feb-16 03:38N 41°36' E 141°23'212.2
2018-Feb-16 03:30N 41°38' E 141°22'612.5
2018-Feb-16 02:59N 41°43' E 141°18'612.9
2018-Feb-16 02:29N 41°49' E 141°14'  
Track history (hours):
 
Tides and Currents Weather Stations Pressure Air Temp Water Temp Dewpoint Dewpoint Depression Visibility Wind Speed Wind Dir Waves Ship Positions

Seihou Maru

Last reported at 2018-Feb-20 07:00 UTC. Time now 2018-Feb-20 07:30 UTC.
Position N 35°27' E 139°49'.

Length 75 m; draft 4.6 m.

Type: Cargo ship. MMSI: 431007426.

Date/timePositionNaut miles runAvg speedWind from/ knotsBaromVisibWave heightAir tempDewpointWater temp
2018-Feb-20 07:00N 35°27' E 139°49'712.1
2018-Feb-20 06:28N 35°33' E 139°53'611.1
2018-Feb-20 05:57N 35°37' E 139°48'1 1.3
2018-Feb-20 05:27N 35°38' E 139°48'0 0.0
2018-Feb-20 04:06N 35°38' E 139°48'0 0.0
2018-Feb-20 03:53N 35°38' E 139°48'0 0.0
2018-Feb-20 03:24N 35°38' E 139°48'0 0.0
2018-Feb-20 02:53N 35°38' E 139°48'0 0.0
2018-Feb-20 01:33N 35°38' E 139°48'0 0.0
2018-Feb-20 01:24N 35°38' E 139°48'0 0.0
2018-Feb-20 00:58N 35°38' E 139°48'0 0.0
2018-Feb-20 00:27N 35°38' E 139°48'0 0.0
2018-Feb-19 23:57N 35°38' E 139°48'0 0.5
2018-Feb-19 23:30N 35°38' E 139°48'3 6.5
2018-Feb-19 23:00N 35°36' E 139°52'1 2.1
2018-Feb-19 22:29N 35°36' E 139°53'0 0.0
2018-Feb-19 22:00N 35°36' E 139°53'0 0.0
2018-Feb-19 21:25N 35°36' E 139°53'0 0.0
2018-Feb-19 21:00N 35°36' E 139°53'0 0.0
2018-Feb-19 20:30N 35°36' E 139°53'0 0.0
2018-Feb-19 19:57N 35°36' E 139°53'0 0.0
2018-Feb-19 19:22N 35°36' E 139°53'0 0.0
2018-Feb-19 19:00N 35°36' E 139°53'0 0.0
2018-Feb-19 18:27N 35°36' E 139°53'0 0.0
2018-Feb-19 17:59N 35°36' E 139°53'0 0.0
2018-Feb-19 17:30N 35°36' E 139°53'0 0.0
2018-Feb-19 16:56N 35°36' E 139°53'0 0.0
2018-Feb-19 16:30N 35°36' E 139°53'0 0.0
2018-Feb-19 15:59N 35°36' E 139°53'0 0.1
2018-Feb-19 15:16N 35°36' E 139°53'0 0.0
2018-Feb-19 14:06N 35°36' E 139°53'0 0.0
2018-Feb-19 13:59N 35°36' E 139°53'0 0.0
2018-Feb-19 13:30N 35°36' E 139°53'0 0.0
2018-Feb-19 12:58N 35°36' E 139°53'0 0.0
2018-Feb-19 12:09N 35°36' E 139°53'0 0.0
2018-Feb-19 11:57N 35°36' E 139°53'0 0.0
2018-Feb-19 11:25N 35°36' E 139°53'0 0.0
2018-Feb-19 10:41N 35°36' E 139°53'0 0.0
2018-Feb-19 10:27N 35°36' E 139°53'0 0.0
2018-Feb-19 10:00N 35°36' E 139°53'0 0.1
2018-Feb-19 09:30N 35°36' E 139°53'0 0.0
2018-Feb-19 08:57N 35°36' E 139°53'0 0.0
2018-Feb-19 08:30N 35°36' E 139°53'0 0.0
2018-Feb-19 08:00N 35°36' E 139°53'2 4.2
2018-Feb-19 07:30N 35°35' E 139°55'612.3
2018-Feb-19 07:00N 35°35' E 140°03'2 4.0
2018-Feb-19 06:30N 35°37' E 140°05'0 0.0
2018-Feb-19 06:00N 35°37' E 140°05'0 0.0
2018-Feb-19 05:30N 35°37' E 140°05'0 0.0
2018-Feb-19 05:00N 35°37' E 140°05'0 0.0
2018-Feb-19 04:31N 35°37' E 140°05'0 0.0
2018-Feb-19 04:00N 35°37' E 140°05'1 2.1
2018-Feb-19 03:30N 35°36' E 140°05'4 8.3
2018-Feb-19 03:00N 35°34' E 140°01'3 5.1
2018-Feb-19 02:30N 35°34' E 139°58'3 7.0
2018-Feb-19 02:00N 35°38' E 139°58'3 1.6
2018-Feb-18 23:58N 35°41' E 139°57'3 0.1
2018-Feb-18 03:30N 35°38' E 139°59'3 0.7
2018-Feb-17 23:53N 35°36' E 139°57'0 0.0
2018-Feb-17 23:28N 35°36' E 139°57'0 0.0
2018-Feb-17 22:11N 35°36' E 139°57'0 0.0
2018-Feb-17 21:51N 35°36' E 139°57'0 0.0
2018-Feb-17 21:30N 35°36' E 139°57'0 0.0
2018-Feb-17 19:51N 35°36' E 139°57'3 6.7
2018-Feb-17 19:25N 35°33' E 139°56'512.5
2018-Feb-17 19:00N 35°29' E 139°52'612.6
2018-Feb-17 18:30N 35°25' E 139°47'612.5
2018-Feb-17 18:01N 35°19' E 139°44'612.0
2018-Feb-17 17:30N 35°13' E 139°47'611.6
2018-Feb-17 17:00N 35°07' E 139°46'17 6.8
2018-Feb-17 14:28N 34°57' E 140°02'40411.6
2018-Feb-16 03:38N 41°36' E 141°23'212.2
2018-Feb-16 03:30N 41°38' E 141°22'612.5
2018-Feb-16 02:59N 41°43' E 141°18'612.9
2018-Feb-16 02:29N 41°49' E 141°14'  

Dump ship's entire track history